Time;durP1;ratioP1;P1;durP2;ratioP2;P2;SDS_P1;SDS_P2;PMS_P1;PMS_P2;Temp;Humidity;BMP_temperature;BMP_pressure;BME280_temperature;BME280_humidity;BME280_pressure;Samples;Min_cycle;Max_cycle;Signal;HPM_P1;HPM_P2
2022/05/12 00:02:07;;;;;;;;;;;14.30;79.90;;;;;;5061175;28;19971;-71
2022/05/12 00:04:33;;;;;;;;;;;14.40;79.40;;;;;;5069735;28;20008;-71
2022/05/12 00:06:59;;;;;;;;;;;14.50;79.50;;;;;;5071368;28;19908;-72
2022/05/12 00:09:25;;;;;;;;;;;14.40;80.00;;;;;;5071348;28;19916;-71
2022/05/12 00:11:50;;;;;;;;;;;14.30;80.80;;;;;;5061560;28;19970;-72
2022/05/12 00:14:16;;;;;;;;;;;14.40;80.60;;;;;;5057138;28;19913;-72
2022/05/12 00:16:42;;;;;;;;;;;14.30;81.20;;;;;;5051959;28;19931;-71
2022/05/12 00:19:07;;;;;;;;;;;14.30;81.70;;;;;;5052061;28;19909;-71
2022/05/12 00:21:33;;;;;;;;;;;14.20;81.90;;;;;;5052016;28;20405;-71
2022/05/12 00:23:58;;;;;;;;;;;14.20;82.40;;;;;;5051656;28;19909;-71
2022/05/12 00:26:25;;;;;;;;;;;14.20;82.50;;;;;;5051831;28;19913;-72
2022/05/12 00:28:51;;;;;;;;;;;14.20;82.50;;;;;;5051929;28;19999;-72
2022/05/12 00:31:17;;;;;;;;;;;14.50;82.20;;;;;;5051626;28;19916;-72
2022/05/12 00:33:42;;;;;;;;;;;14.40;82.20;;;;;;5051360;28;20007;-71
2022/05/12 00:36:08;;;;;;;;;;;14.40;82.70;;;;;;5051826;28;19932;-71
2022/05/12 00:38:33;;;;;;;;;;;14.30;83.60;;;;;;5051784;28;19955;-71
2022/05/12 00:40:59;;;;;;;;;;;14.60;82.60;;;;;;5051494;28;19954;-71
2022/05/12 00:43:32;;;;;;;;;;;14.80;81.90;;;;;;5048724;28;19912;-71
2022/05/12 00:45:57;;;;;;;;;;;14.80;82.40;;;;;;5045636;28;19909;-71
2022/05/12 00:48:23;;;;;;;;;;;14.70;83.10;;;;;;5051352;28;20327;-72
2022/05/12 00:50:48;;;;;;;;;;;14.50;84.70;;;;;;5052086;28;19909;-71
2022/05/12 00:53:15;;;;;;;;;;;14.40;85.20;;;;;;5047597;28;20472;-72
2022/05/12 00:55:41;;;;;;;;;;;14.40;85.00;;;;;;5068299;28;19915;-71
2022/05/12 00:58:09;;;;;;;;;;;14.50;84.60;;;;;;5057491;28;19909;-72
2022/05/12 01:00:35;;;;;;;;;;;14.50;84.80;;;;;;5055995;28;19932;-71
2022/05/12 01:03:03;;;;;;;;;;;14.40;85.00;;;;;;5054661;28;19916;-71
2022/05/12 01:05:29;;;;;;;;;;;14.50;85.20;;;;;;5058541;28;19990;-71
2022/05/12 01:07:55;;;;;;;;;;;14.40;85.20;;;;;;5055499;28;19909;-71
2022/05/12 01:10:21;;;;;;;;;;;14.40;85.50;;;;;;5055366;28;19920;-72
2022/05/12 01:12:48;;;;;;;;;;;14.50;85.60;;;;;;5055322;28;19919;-71
2022/05/12 01:15:14;;;;;;;;;;;14.40;85.60;;;;;;5054885;28;19935;-72
2022/05/12 01:17:40;;;;;;;;;;;14.50;85.90;;;;;;5057732;28;19914;-71
2022/05/12 01:20:06;;;;;;;;;;;14.50;86.30;;;;;;5056597;28;19991;-71
2022/05/12 01:22:34;;;;;;;;;;;14.40;87.10;;;;;;5055059;28;20332;-71
2022/05/12 01:25:00;;;;;;;;;;;14.30;87.60;;;;;;5054815;28;20266;-71
2022/05/12 01:27:29;;;;;;;;;;;14.20;88.40;;;;;;5061202;28;19966;-71
2022/05/12 01:29:56;;;;;;;;;;;14.10;89.00;;;;;;5055439;28;19909;-71
2022/05/12 01:32:23;;;;;;;;;;;14.10;89.50;;;;;;5054895;28;19920;-71
2022/05/12 01:34:48;;;;;;;;;;;13.90;90.00;;;;;;5054805;28;19916;-71
2022/05/12 01:37:14;;;;;;;;;;;13.90;90.20;;;;;;5054930;28;19912;-72
2022/05/12 01:39:40;;;;;;;;;;;13.80;90.20;;;;;;5055015;28;20286;-72
2022/05/12 01:42:06;;;;;;;;;;;13.80;90.40;;;;;;5054909;28;20309;-72
2022/05/12 01:44:33;;;;;;;;;;;13.70;90.90;;;;;;5054829;28;19945;-72
2022/05/12 01:46:58;;;;;;;;;;;13.50;90.70;;;;;;5054806;28;20011;-72
2022/05/12 01:49:24;;;;;;;;;;;13.50;90.90;;;;;;5054583;28;19971;-72
2022/05/12 01:51:53;;;;;;;;;;;13.50;91.10;;;;;;5054192;28;20388;-72
2022/05/12 01:54:19;;;;;;;;;;;13.40;91.50;;;;;;5058892;28;19944;-72
2022/05/12 01:56:44;;;;;;;;;;;13.40;91.90;;;;;;5054663;28;19955;-71
2022/05/12 01:59:10;;;;;;;;;;;13.20;92.30;;;;;;5054605;28;19962;-72
2022/05/12 02:01:35;;;;;;;;;;;13.10;92.70;;;;;;5054371;28;20007;-72
2022/05/12 02:04:02;;;;;;;;;;;13.10;92.60;;;;;;5053278;28;19917;-72
2022/05/12 02:06:28;;;;;;;;;;;13.20;92.40;;;;;;5054848;28;19909;-72
2022/05/12 02:08:53;;;;;;;;;;;13.30;92.40;;;;;;5054739;28;19909;-72
2022/05/12 02:11:19;;;;;;;;;;;13.40;92.40;;;;;;5054408;28;19917;-72
2022/05/12 02:13:44;;;;;;;;;;;13.50;92.10;;;;;;5054139;28;19959;-72
2022/05/12 02:16:10;;;;;;;;;;;13.70;91.70;;;;;;5054767;28;19916;-72
2022/05/12 02:18:35;;;;;;;;;;;13.90;91.40;;;;;;5054777;28;19913;-72
2022/05/12 02:21:01;;;;;;;;;;;14.10;91.20;;;;;;5054316;28;20323;-72
2022/05/12 02:23:26;;;;;;;;;;;14.20;90.80;;;;;;5053950;28;19909;-72
2022/05/12 02:25:51;;;;;;;;;;;14.30;90.70;;;;;;5053994;28;20362;-72
2022/05/12 02:28:17;;;;;;;;;;;14.30;90.80;;;;;;5054136;28;19940;-72
2022/05/12 02:30:42;;;;;;;;;;;14.30;90.60;;;;;;5054131;28;19919;-72
2022/05/12 02:33:09;;;;;;;;;;;14.50;90.30;;;;;;5046938;28;19935;-72
2022/05/12 02:35:35;;;;;;;;;;;15.00;89.70;;;;;;5073055;28;19915;-72
2022/05/12 02:38:01;;;;;;;;;;;15.40;87.70;;;;;;5073225;28;19915;-72
2022/05/12 02:40:28;;;;;;;;;;;15.30;87.70;;;;;;5073148;28;20385;-72
2022/05/12 02:42:54;;;;;;;;;;;15.30;87.90;;;;;;5072785;28;19908;-72
2022/05/12 02:45:20;;;;;;;;;;;15.30;88.20;;;;;;5072815;28;19908;-72
2022/05/12 02:47:45;;;;;;;;;;;15.40;86.70;;;;;;5072966;28;20008;-72
2022/05/12 02:50:12;;;;;;;;;;;15.20;86.90;;;;;;5072756;28;19920;-72
2022/05/12 02:52:38;;;;;;;;;;;15.30;86.50;;;;;;5072605;28;19920;-72
2022/05/12 02:55:04;;;;;;;;;;;15.20;86.90;;;;;;5057180;28;19909;-72
2022/05/12 02:57:29;;;;;;;;;;;15.30;86.40;;;;;;5053480;28;20391;-72
2022/05/12 02:59:55;;;;;;;;;;;15.30;86.30;;;;;;5053497;28;19916;-72
2022/05/12 03:02:20;;;;;;;;;;;15.20;87.00;;;;;;5053426;28;19913;-72
2022/05/12 03:04:46;;;;;;;;;;;15.20;87.00;;;;;;5053243;28;20369;-72
2022/05/12 03:07:12;;;;;;;;;;;15.10;87.90;;;;;;5053735;28;19909;-72
2022/05/12 03:09:37;;;;;;;;;;;15.30;88.00;;;;;;5053537;28;19909;-72
2022/05/12 03:12:03;;;;;;;;;;;15.50;86.80;;;;;;5053390;28;19974;-72
2022/05/12 03:14:29;;;;;;;;;;;15.40;87.00;;;;;;5052910;28;19909;-72
2022/05/12 03:16:54;;;;;;;;;;;15.40;87.10;;;;;;5053031;28;19909;-73
2022/05/12 03:19:21;;;;;;;;;;;15.40;87.80;;;;;;5053333;28;19912;-72
2022/05/12 03:21:47;;;;;;;;;;;16.10;85.70;;;;;;5053072;28;19960;-72
2022/05/12 03:24:13;;;;;;;;;;;16.00;86.40;;;;;;5058114;28;19909;-72
2022/05/12 03:26:39;;;;;;;;;;;15.90;87.10;;;;;;5056635;28;19909;-72
2022/05/12 03:29:04;;;;;;;;;;;16.10;86.30;;;;;;5052956;28;20022;-72
2022/05/12 03:31:30;;;;;;;;;;;16.10;86.60;;;;;;5052904;28;19997;-72
2022/05/12 03:33:55;;;;;;;;;;;16.10;86.30;;;;;;5052643;28;20309;-71
2022/05/12 03:36:22;;;;;;;;;;;15.80;87.60;;;;;;5052952;28;19909;-72
2022/05/12 03:38:48;;;;;;;;;;;15.40;88.90;;;;;;5052961;28;20388;-72
2022/05/12 03:41:13;;;;;;;;;;;15.10;90.00;;;;;;5052821;28;20003;-72
2022/05/12 03:46:23;;;;;;;;;;;14.30;91.20;;;;;;5053096;28;20285;-72
2022/05/12 03:48:49;;;;;;;;;;;14.00;91.90;;;;;;5051261;28;19931;-72
2022/05/12 03:51:15;;;;;;;;;;;14.00;92.10;;;;;;5052484;28;20344;-72
2022/05/12 03:53:40;;;;;;;;;;;14.10;92.00;;;;;;5052110;28;19913;-72
2022/05/12 03:56:07;;;;;;;;;;;14.00;92.20;;;;;;5052441;28;20425;-72
2022/05/12 03:58:33;;;;;;;;;;;13.90;92.70;;;;;;5052336;28;19916;-72
2022/05/12 04:00:59;;;;;;;;;;;14.00;92.90;;;;;;5052117;28;19909;-72
2022/05/12 04:03:24;;;;;;;;;;;14.00;92.90;;;;;;5051992;28;19935;-72
2022/05/12 04:05:50;;;;;;;;;;;14.10;92.90;;;;;;5052387;28;19909;-73
2022/05/12 04:08:15;;;;;;;;;;;14.10;93.30;;;;;;5052332;28;19939;-72
2022/05/12 04:10:41;;;;;;;;;;;14.00;93.50;;;;;;5052231;28;19955;-72
2022/05/12 04:13:07;;;;;;;;;;;14.00;93.70;;;;;;5051671;28;20403;-73
2022/05/12 04:15:32;;;;;;;;;;;14.00;93.90;;;;;;5052097;28;19909;-73
2022/05/12 04:18:02;;;;;;;;;;;14.10;93.70;;;;;;5052178;28;19909;-72
2022/05/12 04:20:28;;;;;;;;;;;14.10;94.30;;;;;;5052479;28;19931;-73
2022/05/12 04:22:54;;;;;;;;;;;14.10;94.70;;;;;;5052163;28;20042;-72
2022/05/12 04:25:20;;;;;;;;;;;14.40;94.60;;;;;;5051562;28;19966;-72
2022/05/12 04:27:45;;;;;;;;;;;14.40;94.70;;;;;;5044815;28;19914;-73
2022/05/12 04:30:12;;;;;;;;;;;14.60;94.80;;;;;;5052005;28;19909;-72
2022/05/12 04:32:38;;;;;;;;;;;14.30;94.90;;;;;;5051834;28;19916;-72
2022/05/12 04:35:14;;;;;;;;;;;14.20;95.20;;;;;;5051849;28;19970;-72
2022/05/12 04:37:41;;;;;;;;;;;14.10;95.80;;;;;;5052142;28;20378;-72
2022/05/12 04:40:27;;;;;;;;;;;13.90;96.90;;;;;;5052086;28;19909;-72
2022/05/12 04:42:53;;;;;;;;;;;14.10;96.80;;;;;;5051246;28;19912;-73
2022/05/12 04:45:20;;;;;;;;;;;14.40;96.20;;;;;;5051950;28;19958;-72
2022/05/12 04:47:45;;;;;;;;;;;14.60;96.00;;;;;;5052059;28;20263;-73
2022/05/12 04:50:13;;;;;;;;;;;14.90;95.80;;;;;;5051986;28;19962;-72
2022/05/12 04:52:39;;;;;;;;;;;14.60;96.50;;;;;;5051538;28;19912;-72
2022/05/12 04:55:05;;;;;;;;;;;14.80;96.20;;;;;;5055378;28;19916;-72
2022/05/12 04:57:37;;;;;;;;;;;14.60;97.20;;;;;;5050147;28;19996;-72
2022/05/12 05:00:03;;;;;;;;;;;14.60;97.50;;;;;;5051766;28;19959;-73
2022/05/12 05:02:28;;;;;;;;;;;14.50;98.30;;;;;;5051706;28;19909;-72
2022/05/12 05:04:54;;;;;;;;;;;14.60;98.40;;;;;;5051298;28;19909;-72
2022/05/12 05:07:19;;;;;;;;;;;14.90;97.70;;;;;;5051113;28;19909;-73
2022/05/12 05:09:45;;;;;;;;;;;15.20;96.60;;;;;;5051348;28;19958;-73
2022/05/12 05:12:10;;;;;;;;;;;15.60;96.10;;;;;;5051116;28;19920;-73
2022/05/12 05:14:36;;;;;;;;;;;15.80;95.60;;;;;;5051308;28;19913;-73
2022/05/12 05:17:02;;;;;;;;;;;15.90;95.80;;;;;;5051495;28;20267;-73
2022/05/12 05:19:27;;;;;;;;;;;15.90;95.40;;;;;;5051349;28;19916;-73
2022/05/12 05:21:53;;;;;;;;;;;16.10;95.10;;;;;;5051015;28;19912;-73
2022/05/12 05:24:19;;;;;;;;;;;16.00;95.50;;;;;;5050722;28;20331;-73
2022/05/12 05:26:44;;;;;;;;;;;15.90;96.40;;;;;;5050985;28;20003;-73
2022/05/12 05:29:10;;;;;;;;;;;16.00;97.00;;;;;;5050276;28;19909;-73
2022/05/12 05:31:37;;;;;;;;;;;16.10;96.90;;;;;;5051105;28;19917;-73
2022/05/12 05:34:02;;;;;;;;;;;16.40;96.80;;;;;;5050755;28;19909;-73
2022/05/12 05:36:28;;;;;;;;;;;16.70;95.90;;;;;;5051121;28;19951;-73
2022/05/12 05:38:53;;;;;;;;;;;16.50;96.70;;;;;;5053381;28;19969;-73
2022/05/12 05:41:19;;;;;;;;;;;16.40;97.20;;;;;;5054708;28;19913;-73
2022/05/12 05:43:44;;;;;;;;;;;16.40;97.60;;;;;;5054529;28;20000;-73
2022/05/12 05:46:10;;;;;;;;;;;16.50;97.40;;;;;;5054871;28;19916;-73
2022/05/12 05:48:36;;;;;;;;;;;16.70;96.50;;;;;;5054757;28;20385;-73
2022/05/12 05:53:45;;;;;;;;;;;17.30;94.10;;;;;;5057903;28;19935;-73
2022/05/12 05:56:14;;;;;;;;;;;17.70;93.50;;;;;;5054299;28;19909;-73
2022/05/12 05:58:41;;;;;;;;;;;17.80;93.20;;;;;;5054493;28;20362;-73
2022/05/12 06:01:07;;;;;;;;;;;17.70;93.30;;;;;;5047905;28;19913;-73
2022/05/12 06:03:32;;;;;;;;;;;17.60;92.80;;;;;;5073245;28;19915;-73
2022/05/12 06:05:58;;;;;;;;;;;17.60;93.00;;;;;;5073379;28;20365;-73
2022/05/12 06:08:23;;;;;;;;;;;18.10;92.80;;;;;;5073371;28;20266;-73
2022/05/12 06:10:49;;;;;;;;;;;18.90;91.30;;;;;;5067663;28;21140;-73
2022/05/12 06:13:15;;;;;;;;;;;18.90;90.50;;;;;;5053243;28;19913;-73
2022/05/12 06:15:41;;;;;;;;;;;18.60;91.00;;;;;;5051551;28;19952;-72
2022/05/12 06:18:08;;;;;;;;;;;18.20;91.40;;;;;;5053445;28;19947;-73
2022/05/12 06:20:33;;;;;;;;;;;17.90;92.80;;;;;;5052837;28;19909;-73
2022/05/12 06:22:59;;;;;;;;;;;17.90;92.20;;;;;;5051475;28;19954;-73
2022/05/12 06:25:24;;;;;;;;;;;17.90;92.60;;;;;;5058574;28;20350;-73
2022/05/12 06:27:51;;;;;;;;;;;18.10;92.40;;;;;;5054488;28;19908;-73
2022/05/12 06:30:17;;;;;;;;;;;18.20;92.50;;;;;;5053905;28;19909;-73
2022/05/12 06:32:43;;;;;;;;;;;18.40;92.20;;;;;;5053397;28;20274;-73
2022/05/12 06:35:10;;;;;;;;;;;18.70;92.50;;;;;;5053192;28;19940;-73
2022/05/12 06:37:35;;;;;;;;;;;19.20;91.10;;;;;;5053756;28;20281;-73
2022/05/12 06:40:01;;;;;;;;;;;19.40;91.40;;;;;;5053268;28;20007;-73
2022/05/12 06:42:27;;;;;;;;;;;19.50;90.90;;;;;;5039661;28;19955;-73
2022/05/12 06:44:54;;;;;;;;;;;19.60;90.10;;;;;;5059885;28;19948;-73
2022/05/12 06:47:19;;;;;;;;;;;19.90;90.30;;;;;;5053591;28;19920;-73
2022/05/12 06:49:49;;;;;;;;;;;19.60;90.80;;;;;;5052726;28;19916;-73
2022/05/12 06:52:14;;;;;;;;;;;19.70;90.00;;;;;;5053128;28;19916;-73
2022/05/12 06:54:40;;;;;;;;;;;20.60;88.80;;;;;;5053000;28;20698;-74
2022/05/12 06:57:06;;;;;;;;;;;21.30;85.70;;;;;;5052978;28;19936;-73
2022/05/12 06:59:35;;;;;;;;;;;21.70;83.70;;;;;;5053459;28;19978;-73
2022/05/12 07:02:00;;;;;;;;;;;21.40;83.00;;;;;;5052644;28;20277;-73
2022/05/12 07:04:29;;;;;;;;;;;22.10;84.30;;;;;;5052348;28;19919;-73
2022/05/12 07:06:54;;;;;;;;;;;22.30;84.00;;;;;;5052839;28;19909;-73
2022/05/12 07:09:20;;;;;;;;;;;22.20;81.70;;;;;;5053135;28;19913;-73
2022/05/12 07:11:46;;;;;;;;;;;22.50;80.60;;;;;;5052570;28;19917;-73
2022/05/12 07:14:14;;;;;;;;;;;22.50;83.90;;;;;;5050051;28;20320;-73
2022/05/12 07:16:41;;;;;;;;;;;21.90;81.40;;;;;;5052648;28;19988;-73
2022/05/12 07:19:06;;;;;;;;;;;21.90;83.10;;;;;;5048777;28;20370;-73
2022/05/12 07:27:00;;;;;;;;;;;23.00;81.10;;;;;;5051772;28;19915;-73
2022/05/12 07:29:27;;;;;;;;;;;23.10;78.50;;;;;;5051809;28;20332;-73
2022/05/12 07:31:53;;;;;;;;;;;23.40;81.70;;;;;;5051899;28;19913;-73
2022/05/12 07:34:19;;;;;;;;;;;23.80;81.80;;;;;;5051792;28;20000;-73
2022/05/12 07:36:46;;;;;;;;;;;23.70;80.50;;;;;;5051657;28;20287;-71
2022/05/12 07:39:12;;;;;;;;;;;23.90;77.80;;;;;;5052363;28;20294;-72
2022/05/12 07:41:41;;;;;;;;;;;23.60;77.50;;;;;;5049189;28;19924;-72
2022/05/12 07:44:10;;;;;;;;;;;23.50;78.70;;;;;;5051395;28;19909;-72
2022/05/12 07:46:36;;;;;;;;;;;23.60;78.90;;;;;;5051478;28;20118;-72
2022/05/12 07:49:01;;;;;;;;;;;24.20;75.70;;;;;;5051731;28;19999;-72
2022/05/12 07:51:27;;;;;;;;;;;24.00;76.40;;;;;;5050498;28;19915;-72
2022/05/12 07:53:53;;;;;;;;;;;24.20;77.00;;;;;;5051123;28;19909;-72
2022/05/12 07:56:20;;;;;;;;;;;24.20;76.20;;;;;;5056236;28;19913;-72
2022/05/12 07:58:46;;;;;;;;;;;24.00;75.90;;;;;;5051750;28;19917;-72
2022/05/12 08:01:12;;;;;;;;;;;24.00;77.50;;;;;;5047870;28;20023;-72
2022/05/12 08:03:39;;;;;;;;;;;24.80;75.70;;;;;;5052013;28;19939;-72
2022/05/12 08:06:05;;;;;;;;;;;25.00;75.90;;;;;;5051616;28;19916;-72
2022/05/12 08:08:31;;;;;;;;;;;26.10;73.30;;;;;;5051265;28;19916;-72
2022/05/12 08:10:57;;;;;;;;;;;23.50;76.60;;;;;;5051339;28;19909;-72
2022/05/12 08:13:23;;;;;;;;;;;24.00;79.10;;;;;;5049859;28;20508;-72
2022/05/12 08:15:49;;;;;;;;;;;25.30;74.70;;;;;;5051409;28;19908;-72
2022/05/12 08:18:19;;;;;;;;;;;23.00;76.30;;;;;;5052973;28;19908;-72
2022/05/12 08:20:45;;;;;;;;;;;23.10;79.10;;;;;;5057835;28;19995;-72
2022/05/12 08:23:11;;;;;;;;;;;24.90;77.90;;;;;;5050105;28;19995;-72
2022/05/12 08:25:37;;;;;;;;;;;23.70;76.10;;;;;;5054456;28;19913;-72
2022/05/12 08:28:02;;;;;;;;;;;24.40;75.80;;;;;;5054697;28;19913;-72
2022/05/12 08:30:30;;;;;;;;;;;22.90;76.50;;;;;;5051493;28;19920;-72
2022/05/12 08:32:56;;;;;;;;;;;23.10;80.70;;;;;;5050454;28;19913;-72
2022/05/12 08:35:21;;;;;;;;;;;23.20;81.30;;;;;;5050716;28;20565;-71
2022/05/12 08:37:47;;;;;;;;;;;21.80;81.80;;;;;;5050578;28;19909;-71
2022/05/12 08:40:30;;;;;;;;;;;21.70;82.60;;;;;;5049096;28;19916;-72
2022/05/12 08:42:59;;;;;;;;;;;21.50;85.10;;;;;;5055036;28;19912;-71
2022/05/12 08:45:25;;;;;;;;;;;21.50;82.60;;;;;;5050305;28;19913;-72
2022/05/12 08:47:50;;;;;;;;;;;22.50;83.10;;;;;;5054998;28;20353;-72
2022/05/12 08:50:27;;;;;;;;;;;21.80;82.60;;;;;;5050517;28;19964;-72
2022/05/12 08:52:55;;;;;;;;;;;21.90;83.90;;;;;;5050468;28;19917;-72
2022/05/12 08:55:25;;;;;;;;;;;22.90;86.00;;;;;;5050446;28;19913;-72
2022/05/12 08:57:55;;;;;;;;;;;21.70;82.90;;;;;;5049525;28;19949;-72
2022/05/12 09:00:21;;;;;;;;;;;23.40;84.00;;;;;;5050832;28;19955;-72
2022/05/12 09:03:07;;;;;;;;;;;22.80;81.40;;;;;;5050501;28;20318;-72
2022/05/12 09:05:43;;;;;;;;;;;23.80;79.60;;;;;;5050853;28;19948;-72
2022/05/12 09:08:11;;;;;;;;;;;23.40;82.30;;;;;;5050688;28;20421;-72
2022/05/12 09:10:50;;;;;;;;;;;24.40;77.20;;;;;;5050312;28;19917;-72
2022/05/12 09:13:55;;;;;;;;;;;25.30;72.50;;;;;;5054861;28;20003;-72
2022/05/12 09:16:23;;;;;;;;;;;25.90;75.70;;;;;;5051846;28;19909;-72
2022/05/12 09:18:50;;;;;;;;;;;24.90;74.90;;;;;;5052180;28;19913;-72
2022/05/12 09:21:18;;;;;;;;;;;25.60;74.90;;;;;;5065899;28;19917;-72
2022/05/12 09:23:43;;;;;;;;;;;25.50;72.50;;;;;;5054132;28;19909;-72
2022/05/12 09:26:27;;;;;;;;;;;26.80;73.20;;;;;;5054316;28;19912;-72
2022/05/12 09:28:57;;;;;;;;;;;27.70;74.40;;;;;;5054979;28;19970;-72
2022/05/12 09:31:22;;;;;;;;;;;26.90;70.90;;;;;;5053595;28;19962;-72
2022/05/12 09:33:50;;;;;;;;;;;27.20;75.80;;;;;;5056779;28;20391;-72
2022/05/12 09:36:18;;;;;;;;;;;27.00;73.20;;;;;;5054124;28;20318;-72
2022/05/12 09:38:45;;;;;;;;;;;27.00;73.10;;;;;;5054522;28;19913;-72
2022/05/12 09:41:18;;;;;;;;;;;27.70;70.80;;;;;;5052649;28;19955;-72
2022/05/12 09:43:44;;;;;;;;;;;26.70;68.40;;;;;;5052826;28;19913;-73
2022/05/12 09:46:16;;;;;;;;;;;25.70;71.50;;;;;;5057718;28;19971;-73
2022/05/12 09:48:42;;;;;;;;;;;26.30;72.60;;;;;;5054419;28;19916;-73
2022/05/12 09:51:32;;;;;;;;;;;25.40;75.80;;;;;;5053803;28;19915;-73
2022/05/12 09:54:18;;;;;;;;;;;26.40;72.10;;;;;;5052822;28;19956;-73
2022/05/12 09:56:54;;;;;;;;;;;25.50;73.00;;;;;;5043549;28;19916;-73
2022/05/12 09:59:22;;;;;;;;;;;24.00;77.00;;;;;;5054108;28;20256;-73
2022/05/12 10:01:52;;;;;;;;;;;24.00;76.20;;;;;;5052432;28;19908;-73
2022/05/12 10:09:57;;;;;;;;;;;25.60;74.10;;;;;;5054309;28;19919;-73
2022/05/12 10:12:30;;;;;;;;;;;24.50;73.90;;;;;;5053331;28;19935;-73
2022/05/12 10:14:59;;;;;;;;;;;24.90;76.20;;;;;;5058363;28;19908;-73
2022/05/12 10:17:40;;;;;;;;;;;25.60;74.40;;;;;;5051980;28;19999;-73
2022/05/12 10:20:10;;;;;;;;;;;26.30;71.80;;;;;;5053566;28;19908;-73
2022/05/12 10:22:43;;;;;;;;;;;26.60;72.00;;;;;;5056445;28;19908;-73
2022/05/12 10:25:17;;;;;;;;;;;27.60;68.10;;;;;;5052009;28;19913;-73
2022/05/12 10:27:54;;;;;;;;;;;27.00;74.10;;;;;;5053129;28;20362;-73
2022/05/12 10:30:25;;;;;;;;;;;27.20;70.90;;;;;;5053610;28;20382;-73
2022/05/12 10:32:51;;;;;;;;;;;27.60;67.60;;;;;;5052456;28;19913;-73
2022/05/12 10:35:16;;;;;;;;;;;26.60;69.60;;;;;;5052674;28;19908;-73
2022/05/12 10:38:11;;;;;;;;;;;25.20;74.00;;;;;;5052956;28;19908;-73
2022/05/12 10:40:37;;;;;;;;;;;26.20;71.80;;;;;;5049149;28;19913;-72
2022/05/12 10:43:21;;;;;;;;;;;26.10;72.50;;;;;;5058220;28;19983;-73
2022/05/12 10:45:53;;;;;;;;;;;25.90;72.80;;;;;;5053684;28;20011;-73
2022/05/12 10:48:25;;;;;;;;;;;24.50;77.20;;;;;;5052959;28;20351;-73
2022/05/12 10:50:57;;;;;;;;;;;25.20;77.50;;;;;;5053256;28;19920;-73
2022/05/12 10:53:27;;;;;;;;;;;26.60;72.30;;;;;;5050998;28;20282;-73
2022/05/12 10:56:00;;;;;;;;;;;25.70;72.00;;;;;;5066899;28;20213;-73
2022/05/12 10:58:34;;;;;;;;;;;25.10;74.50;;;;;;5047067;28;20004;-73
2022/05/12 11:01:00;;;;;;;;;;;25.30;76.60;;;;;;5052908;28;20384;-73
2022/05/12 11:03:37;;;;;;;;;;;27.70;72.00;;;;;;5051157;28;19931;-71
2022/05/12 11:06:05;;;;;;;;;;;27.60;70.40;;;;;;5052333;28;20381;-71
2022/05/12 11:08:51;;;;;;;;;;;25.40;74.00;;;;;;5052893;28;19909;-71
2022/05/12 11:11:19;;;;;;;;;;;25.40;73.60;;;;;;5052577;28;19913;-71
2022/05/12 11:13:45;;;;;;;;;;;25.30;70.10;;;;;;5055054;28;20353;-72
2022/05/12 11:16:18;;;;;;;;;;;24.90;74.00;;;;;;5057901;28;19913;-72
2022/05/12 11:18:49;;;;;;;;;;;24.00;76.70;;;;;;5052804;28;19917;-72
2022/05/12 11:21:18;;;;;;;;;;;24.50;74.20;;;;;;5051731;28;19917;-72
2022/05/12 11:23:53;;;;;;;;;;;25.30;74.70;;;;;;5051623;28;19913;-72
2022/05/12 11:26:32;;;;;;;;;;;25.50;70.10;;;;;;5051983;28;20358;-72
2022/05/12 11:32:01;;;;;;;;;;;25.70;72.20;;;;;;5052213;28;19920;-72
2022/05/12 11:34:27;;;;;;;;;;;26.00;73.30;;;;;;5052423;28;20378;-72
2022/05/12 11:36:54;;;;;;;;;;;25.60;71.60;;;;;;5052278;28;20004;-72
2022/05/12 11:39:31;;;;;;;;;;;24.80;74.00;;;;;;5045733;28;20374;-72
2022/05/12 11:42:05;;;;;;;;;;;25.60;76.10;;;;;;5050841;28;19920;-72
2022/05/12 11:44:34;;;;;;;;;;;25.30;73.90;;;;;;5051867;28;19909;-72
2022/05/12 11:47:06;;;;;;;;;;;25.40;75.40;;;;;;5052021;28;19909;-72
2022/05/12 11:49:40;;;;;;;;;;;26.60;71.00;;;;;;5052340;28;19952;-72
2022/05/12 11:52:21;;;;;;;;;;;26.70;70.80;;;;;;5051856;28;19912;-72
2022/05/12 11:54:58;;;;;;;;;;;26.70;70.00;;;;;;5051884;28;19974;-72
2022/05/12 11:57:29;;;;;;;;;;;27.90;69.50;;;;;;5051770;28;20020;-72
2022/05/12 11:59:55;;;;;;;;;;;26.90;65.40;;;;;;5052811;28;20266;-72
2022/05/12 12:02:33;;;;;;;;;;;27.70;70.10;;;;;;5052825;28;19916;-72
2022/05/12 12:04:59;;;;;;;;;;;28.50;66.10;;;;;;5051105;28;20435;-72
2022/05/12 12:07:31;;;;;;;;;;;28.80;65.10;;;;;;5050113;28;19965;-72
2022/05/12 12:10:04;;;;;;;;;;;28.70;67.60;;;;;;5051701;28;20012;-72
2022/05/12 12:12:45;;;;;;;;;;;28.60;65.80;;;;;;5052250;28;20420;-72
2022/05/12 12:15:34;;;;;;;;;;;29.30;65.00;;;;;;5057515;28;20520;-72
2022/05/12 12:18:18;;;;;;;;;;;28.60;61.80;;;;;;5049029;28;19916;-73
2022/05/12 12:20:45;;;;;;;;;;;28.60;65.20;;;;;;5059592;28;19970;-72
2022/05/12 12:23:23;;;;;;;;;;;29.00;61.20;;;;;;5053743;28;19916;-72
2022/05/12 12:26:09;;;;;;;;;;;29.50;58.80;;;;;;5051347;28;19958;-72
2022/05/12 12:28:37;;;;;;;;;;;30.00;62.60;;;;;;5050943;28;20317;-72
2022/05/12 12:31:05;;;;;;;;;;;29.00;59.80;;;;;;5051036;28;20072;-72
2022/05/12 12:33:35;;;;;;;;;;;26.90;63.10;;;;;;5049282;28;20508;-72
2022/05/12 12:36:05;;;;;;;;;;;26.80;66.40;;;;;;5050634;28;19909;-72
2022/05/12 12:38:49;;;;;;;;;;;26.20;67.50;;;;;;5051174;28;19952;-72
2022/05/12 12:41:17;;;;;;;;;;;26.10;68.70;;;;;;5049097;28;19909;-72
2022/05/12 12:43:47;;;;;;;;;;;29.60;67.20;;;;;;5054864;28;19909;-73
2022/05/12 12:46:21;;;;;;;;;;;27.80;63.10;;;;;;5056829;28;20337;-73
2022/05/12 12:48:52;;;;;;;;;;;27.90;62.50;;;;;;5050286;28;19921;-73
2022/05/12 12:51:34;;;;;;;;;;;26.30;66.30;;;;;;5050663;28;19909;-73
2022/05/12 12:57:08;;;;;;;;;;;25.30;70.40;;;;;;5050326;28;19964;-72
2022/05/12 12:59:35;;;;;;;;;;;25.20;67.90;;;;;;5064125;28;19916;-72
2022/05/12 13:02:02;;;;;;;;;;;25.30;67.90;;;;;;5055460;28;19912;-72
2022/05/12 13:04:29;;;;;;;;;;;24.50;68.90;;;;;;5050147;28;20189;-73
2022/05/12 13:06:59;;;;;;;;;;;25.20;67.40;;;;;;5050479;28;20268;-73
2022/05/12 13:09:26;;;;;;;;;;;25.50;70.90;;;;;;5050936;28;19943;-73
2022/05/12 13:12:05;;;;;;;;;;;25.70;67.90;;;;;;5050190;28;19920;-73
2022/05/12 13:14:33;;;;;;;;;;;25.50;71.80;;;;;;5049565;28;19909;-73
2022/05/12 13:16:58;;;;;;;;;;;25.30;70.40;;;;;;5051158;28;19909;-73
2022/05/12 13:19:28;;;;;;;;;;;25.50;68.00;;;;;;5050687;28;20411;-72
2022/05/12 13:21:54;;;;;;;;;;;25.70;68.60;;;;;;5049637;28;19909;-73
2022/05/12 13:24:23;;;;;;;;;;;25.20;68.60;;;;;;5049546;28;19955;-73
2022/05/12 13:26:50;;;;;;;;;;;25.10;66.70;;;;;;5051896;28;19909;-73
2022/05/12 13:29:21;;;;;;;;;;;25.30;67.10;;;;;;5051337;28;19920;-73
2022/05/12 13:32:00;;;;;;;;;;;25.70;64.50;;;;;;5050150;28;19934;-73
2022/05/12 13:34:30;;;;;;;;;;;27.20;64.70;;;;;;5050737;28;19912;-73
2022/05/12 13:36:58;;;;;;;;;;;26.50;62.80;;;;;;5051466;28;19932;-73
2022/05/12 13:39:48;;;;;;;;;;;25.80;65.70;;;;;;5051417;28;19964;-73
2022/05/12 13:42:18;;;;;;;;;;;25.40;67.60;;;;;;5049829;28;19909;-73
2022/05/12 13:44:48;;;;;;;;;;;25.00;67.30;;;;;;5050933;28;19916;-73
2022/05/12 13:47:19;;;;;;;;;;;24.50;67.60;;;;;;5051231;28;19909;-72
2022/05/12 13:49:48;;;;;;;;;;;24.70;70.20;;;;;;5051145;28;19917;-72
2022/05/12 13:52:13;;;;;;;;;;;24.60;68.80;;;;;;5050627;28;19912;-72
2022/05/12 13:54:59;;;;;;;;;;;24.60;70.90;;;;;;5050705;28;19916;-72
2022/05/12 13:57:39;;;;;;;;;;;24.30;67.40;;;;;;5051300;28;19908;-72
2022/05/12 14:00:05;;;;;;;;;;;24.40;69.60;;;;;;5052623;28;19999;-72
2022/05/12 14:02:32;;;;;;;;;;;24.00;68.50;;;;;;5053845;28;20381;-72
2022/05/12 14:05:00;;;;;;;;;;;24.10;72.20;;;;;;5054326;28;20007;-72
2022/05/12 14:07:27;;;;;;;;;;;24.50;72.30;;;;;;5054772;28;19913;-73
2022/05/12 14:09:55;;;;;;;;;;;24.90;70.60;;;;;;5054724;28;19915;-72
2022/05/12 14:12:25;;;;;;;;;;;25.00;69.50;;;;;;5054169;28;19936;-72
2022/05/12 14:20:25;;;;;;;;;;;24.90;66.90;;;;;;5054599;28;20349;-73
2022/05/12 14:22:50;;;;;;;;;;;24.80;69.00;;;;;;5053749;28;19909;-73
2022/05/12 14:25:17;;;;;;;;;;;25.00;67.60;;;;;;5054011;28;20372;-73
2022/05/12 14:27:43;;;;;;;;;;;25.20;71.30;;;;;;5054193;28;19917;-73
2022/05/12 14:30:09;;;;;;;;;;;25.00;68.30;;;;;;5056877;28;20281;-73
2022/05/12 14:32:39;;;;;;;;;;;24.60;69.10;;;;;;5054659;28;20349;-73
2022/05/12 14:35:06;;;;;;;;;;;24.70;72.20;;;;;;5053605;28;19909;-73
2022/05/12 14:37:31;;;;;;;;;;;25.00;72.00;;;;;;5054110;28;19909;-72
2022/05/12 14:39:57;;;;;;;;;;;24.70;71.10;;;;;;5053986;28;20338;-73
2022/05/12 14:42:23;;;;;;;;;;;24.40;71.80;;;;;;5053484;28;19913;-73
2022/05/12 14:44:48;;;;;;;;;;;24.20;71.30;;;;;;5053182;28;19954;-72
2022/05/12 14:47:17;;;;;;;;;;;24.00;71.90;;;;;;5053584;28;19909;-73
2022/05/12 14:49:48;;;;;;;;;;;23.70;70.90;;;;;;5053946;28;19916;-72
2022/05/12 14:52:17;;;;;;;;;;;24.00;72.20;;;;;;5053370;28;19919;-73